Toyah, TX (79785)

8:06 AM CDT on April 28, 2015 (GMT -0500)
MesoWest | | Change Station
CLOSE
Current Station
Personal Weather Station
Location: Toyah, TX
Elevation: 3427 ft
Nearby Weather Stations

Elev 3427 ft 31.19 °N, 103.97 °W | Updated 3 hours ago

Overcast
Overcast
49 °F
Feels Like 49 °F
N
Wind Variable Wind from North
Gusts 0.0 mph

Today
High -- | Low -- °F
--% Chance of Precip.
Yesterday
High -- | Low -- °F
Precip. -- in
7:13 AM 8:32 PM
Waxing Gibbous, 73% visible
Pressure 30.24 in
Visibility 10.0 miles
Clouds Scattered Clouds 3500 ft
Mostly Cloudy 5000 ft
Mostly Cloudy 6000 ft
Windchill 49 °F
Dew Point Not available.
Humidity Not available.
Rainfall in
Snow Depth Not available.
UV 0 out of 12
Pollen 7.30 out of 12
Air Quality Not available.
Flu Activity Local Activity
METAR KPEQ 281255Z AUTO 33010G14KT 10SM SCT035 BKN050 BKN060 10/02 A3024 RMK AO2 T00980023

More Conditions Fewer Conditions

Pressure 30.24 in
Visibility 10.0 miles
Clouds Scattered Clouds 3500 ft
Mostly Cloudy 5000 ft
Mostly Cloudy 6000 ft
Windchill 49 °F
Dew Point Not available.
Humidity Not available.
Rainfall in
Snow Depth Not available.
UV 0 out of 12
Pollen 7.30 out of 12
Air Quality Not available.
Flu Activity Local Activity
METAR KPEQ 281255Z AUTO 33010G14KT 10SM SCT035 BKN050 BKN060 10/02 A3024 RMK AO2 T00980023

More Conditions Fewer Conditions

10-Day Weather Forecast

Almanac

Astronomy

Apr. 28, 2015 Rise Set
Actual Time
Civil Twilight
Nautical Twilight
Astronomical Twilight
Moon
Length of Visible Light
Length of Day
Tomorrow will be .
, % of the Moon is Illuminated

Today's Extremes

State Highs State Lows

Community

WunderPhotos

Upload Photos

1,817,621 photos uploaded!

WunderBlogs® & News

Nearby

Air Quality

  Air Quality AQ Index Pollutant
Not available.

Snow Depth

Station Depth Elevation

Earthquake Activity

City Distance Mag. Time & Date
Minimum magnitude displayed is 2.5.

Coastal Water Temperatures

Place Temperature

Stations

Nearby Weather Stations

Station Location Temp. Windchill Dew Point Humidity Wind Precip. Elev Updated Type